Time;durP1;ratioP1;P1;durP2;ratioP2;P2;SDS_P1;SDS_P2;PMS_P1;PMS_P2;Temp;Humidity;BMP_temperature;BMP_pressure;BME280_temperature;BME280_humidity;BME280_pressure;Samples;Min_cycle;Max_cycle;Signal;HPM_P1;HPM_P2
2024/03/23 00:01:26;;;;;;;5.93;2.60;;;;;;;;;;10472934;28;20122;-75
2024/03/23 00:06:31;;;;;;;4.15;2.20;;;;;;;;;;10455367;28;20179;-75
2024/03/23 00:11:34;;;;;;;5.32;2.45;;;;;;;;;;10481070;28;20037;-74
2024/03/23 00:16:37;;;;;;;3.97;2.20;;;;;;;;;;10479240;28;20071;-75
2024/03/23 00:21:40;;;;;;;3.75;1.90;;;;;;;;;;10486818;28;20055;-76
2024/03/23 00:26:43;;;;;;;3.50;2.50;;;;;;;;;;10478040;28;20448;-74
2024/03/23 00:31:47;;;;;;;5.28;2.05;;;;;;;;;;10469888;28;20051;-75
2024/03/23 00:36:51;;;;;;;1.45;1.15;;;;;;;;;;10474964;28;20069;-76
2024/03/23 00:41:56;;;;;;;4.47;1.37;;;;;;;;;;10480853;28;20044;-76
2024/03/23 00:46:59;;;;;;;5.32;1.73;;;;;;;;;;10483602;28;20629;-75
2024/03/23 00:52:02;;;;;;;3.35;1.30;;;;;;;;;;10481134;28;20047;-75
2024/03/23 00:57:06;;;;;;;2.20;1.27;;;;;;;;;;10486512;28;20033;-75
2024/03/23 01:02:08;;;;;;;;;;;;;;;;;;10485411;28;20421;-74
2024/03/23 01:07:10;;;;;;;3.55;1.10;;;;;;;;;;10484818;28;20396;-75
2024/03/23 01:12:14;;;;;;;2.28;1.20;;;;;;;;;;10481249;28;20077;-75
2024/03/23 01:17:16;;;;;;;1.45;0.68;;;;;;;;;;10475607;28;20044;-75
2024/03/23 01:22:19;;;;;;;1.38;1.10;;;;;;;;;;10477447;28;20052;-75
2024/03/23 01:27:23;;;;;;;3.63;1.00;;;;;;;;;;10463127;28;20467;-76
2024/03/23 01:32:24;;;;;;;2.27;1.20;;;;;;;;;;10482823;28;20043;-75
2024/03/23 01:37:26;;;;;;;1.67;0.60;;;;;;;;;;10477123;28;20303;-76
2024/03/23 01:42:30;;;;;;;1.98;0.85;;;;;;;;;;10481225;28;20055;-77
2024/03/23 01:47:32;;;;;;;0.80;0.77;;;;;;;;;;10478446;28;20120;-76
2024/03/23 01:52:35;;;;;;;0.97;0.80;;;;;;;;;;10477439;28;22198;-76
2024/03/23 01:57:39;;;;;;;0.22;0.22;;;;;;;;;;10487048;28;20236;-75
2024/03/23 02:02:44;;;;;;;1.35;0.90;;;;;;;;;;10481606;28;20406;-76
2024/03/23 02:07:47;;;;;;;2.60;1.27;;;;;;;;;;10463577;28;20169;-76
2024/03/23 02:12:51;;;;;;;0.93;0.73;;;;;;;;;;10473786;28;20554;-75
2024/03/23 02:17:53;;;;;;;1.15;0.82;;;;;;;;;;10463399;28;20048;-76
2024/03/23 02:22:57;;;;;;;2.47;1.15;;;;;;;;;;10481013;28;20067;-75
2024/03/23 02:27:58;;;;;;;1.90;1.17;;;;;;;;;;10476446;28;20048;-75
2024/03/23 02:33:01;;;;;;;5.60;1.02;;;;;;;;;;10480561;28;20071;-76
2024/03/23 02:38:06;;;;;;;5.97;1.95;;;;;;;;;;10485469;28;20040;-75
2024/03/23 02:43:08;;;;;;;3.75;1.42;;;;;;;;;;10479713;28;20055;-74
2024/03/23 02:48:10;;;;;;;1.67;0.80;;;;;;;;;;10478996;28;20029;-76
2024/03/23 02:53:13;;;;;;;1.40;0.95;;;;;;;;;;10485034;28;20060;-75
2024/03/23 02:58:15;;;;;;;1.77;0.52;;;;;;;;;;10480389;28;20520;-75
2024/03/23 03:03:16;;;;;;;0.80;0.80;;;;;;;;;;10477791;28;20493;-76
2024/03/23 03:08:20;;;;;;;2.97;1.23;;;;;;;;;;10464220;28;20417;-77
2024/03/23 03:13:21;;;;;;;1.47;0.93;;;;;;;;;;10479892;28;20044;-75
2024/03/23 03:18:25;;;;;;;1.48;0.88;;;;;;;;;;10473155;28;20453;-74
2024/03/23 03:23:30;;;;;;;2.78;1.30;;;;;;;;;;10478528;28;20048;-76
2024/03/23 03:28:40;;;;;;;1.88;0.85;;;;;;;;;;10470779;28;20041;-76
2024/03/23 03:33:43;;;;;;;0.90;0.68;;;;;;;;;;10473077;28;20106;-75
2024/03/23 03:38:46;;;;;;;3.22;1.20;;;;;;;;;;10491483;28;20048;-76
2024/03/23 03:43:48;;;;;;;4.00;1.80;;;;;;;;;;10482859;28;20048;-73
2024/03/23 03:48:51;;;;;;;2.58;0.98;;;;;;;;;;10505979;28;20039;-74
2024/03/23 03:53:54;;;;;;;1.20;0.93;;;;;;;;;;10469550;28;20056;-74
2024/03/23 03:58:56;;;;;;;1.80;1.10;;;;;;;;;;10472356;28;20052;-73
2024/03/23 04:03:58;;;;;;;3.83;1.67;;;;;;;;;;10488135;28;20044;-73
2024/03/23 04:09:02;;;;;;;3.13;1.33;;;;;;;;;;10485902;28;20052;-74
2024/03/23 04:14:04;;;;;;;2.35;0.88;;;;;;;;;;10487303;28;20040;-75
2024/03/23 04:19:06;;;;;;;2.13;1.20;;;;;;;;;;10481773;28;20036;-74
2024/03/23 04:24:10;;;;;;;2.78;0.82;;;;;;;;;;10479587;28;20039;-73
2024/03/23 04:29:12;;;;;;;4.05;1.65;;;;;;;;;;10484571;28;20358;-74
2024/03/23 04:34:15;;;;;;;2.20;1.10;;;;;;;;;;10497682;28;20480;-73
2024/03/23 04:39:20;;;;;;;1.87;1.03;;;;;;;;;;10486333;28;20044;-74
2024/03/23 04:44:22;;;;;;;2.05;1.30;;;;;;;;;;10487966;28;20047;-73
2024/03/23 04:49:24;;;;;;;2.10;1.40;;;;;;;;;;10484056;28;20040;-74
2024/03/23 04:54:28;;;;;;;3.13;1.33;;;;;;;;;;10478356;28;20553;-74
2024/03/23 04:59:30;;;;;;;0.80;0.55;;;;;;;;;;10476721;28;20040;-74
2024/03/23 05:04:32;;;;;;;2.05;1.30;;;;;;;;;;10499385;28;20535;-73
2024/03/23 05:09:36;;;;;;;2.53;0.95;;;;;;;;;;10484587;28;20493;-75
2024/03/23 05:14:37;;;;;;;2.47;1.03;;;;;;;;;;10471524;28;20043;-74
2024/03/23 05:19:39;;;;;;;3.83;1.45;;;;;;;;;;10477318;28;20458;-75
2024/03/23 05:24:42;;;;;;;2.60;1.25;;;;;;;;;;10476174;28;20420;-74
2024/03/23 05:29:44;;;;;;;3.10;1.23;;;;;;;;;;10483653;28;20041;-75
2024/03/23 05:34:46;;;;;;;3.20;1.58;;;;;;;;;;10483082;28;20052;-76
2024/03/23 05:39:51;;;;;;;2.17;1.30;;;;;;;;;;10465544;28;20032;-75
2024/03/23 05:44:53;;;;;;;3.08;1.55;;;;;;;;;;10477184;28;20042;-74
2024/03/23 05:49:59;;;;;;;1.67;1.25;;;;;;;;;;10484340;28;20040;-76
2024/03/23 05:55:02;;;;;;;1.75;1.10;;;;;;;;;;10451327;28;20489;-76
2024/03/23 06:00:04;;;;;;;1.27;0.87;;;;;;;;;;10492944;28;20039;-76
2024/03/23 06:05:07;;;;;;;3.47;1.80;;;;;;;;;;10479648;28;20508;-75
2024/03/23 06:10:11;;;;;;;1.23;0.63;;;;;;;;;;10482238;28;20101;-75
2024/03/23 06:15:14;;;;;;;1.33;0.87;;;;;;;;;;10484307;28;20411;-75
2024/03/23 06:20:16;;;;;;;2.10;0.97;;;;;;;;;;10477444;28;20040;-75
2024/03/23 06:25:19;;;;;;;2.95;1.55;;;;;;;;;;10498159;28;20071;-75
2024/03/23 06:30:21;;;;;;;1.88;1.17;;;;;;;;;;10479393;28;20058;-74
2024/03/23 06:35:24;;;;;;;1.80;1.05;;;;;;;;;;10488209;28;20067;-74
2024/03/23 06:40:28;;;;;;;2.93;1.10;;;;;;;;;;10490703;28;20425;-75
2024/03/23 06:45:30;;;;;;;2.95;1.40;;;;;;;;;;10483167;28;20106;-75
2024/03/23 06:50:32;;;;;;;4.07;1.50;;;;;;;;;;10466730;28;20389;-76
2024/03/23 06:55:36;;;;;;;2.33;1.50;;;;;;;;;;10479245;28;20045;-76
2024/03/23 07:00:40;;;;;;;1.80;1.23;;;;;;;;;;10481669;28;20078;-75
2024/03/23 07:05:43;;;;;;;1.60;1.17;;;;;;;;;;10477219;28;20035;-75
2024/03/23 07:10:46;;;;;;;3.17;1.23;;;;;;;;;;10474310;28;20045;-75
2024/03/23 07:15:52;;;;;;;3.95;1.60;;;;;;;;;;10475956;28;20055;-75
2024/03/23 07:20:54;;;;;;;0.90;0.90;;;;;;;;;;10478724;28;20055;-76
2024/03/23 07:26:00;;;;;;;1.40;0.80;;;;;;;;;;10463954;28;20277;-75
2024/03/23 07:31:04;;;;;;;1.90;1.33;;;;;;;;;;10476206;28;20390;-75
2024/03/23 07:36:07;;;;;;;2.63;1.15;;;;;;;;;;10475804;28;20202;-76
2024/03/23 07:41:10;;;;;;;2.58;1.45;;;;;;;;;;10481556;28;20216;-76
2024/03/23 07:46:12;;;;;;;4.97;1.65;;;;;;;;;;10458824;28;20559;-76
2024/03/23 07:51:17;;;;;;;3.55;1.40;;;;;;;;;;10478016;28;20033;-75
2024/03/23 07:56:19;;;;;;;;;;;;;;;;;;10472481;28;20040;-75
2024/03/23 08:01:23;;;;;;;6.05;1.80;;;;;;;;;;10485461;28;21786;-77
2024/03/23 08:06:25;;;;;;;;;;;;;;;;;;10478716;28;20086;-78
2024/03/23 08:11:27;;;;;;;2.00;1.48;;;;;;;;;;10491225;28;19997;-77
2024/03/23 08:16:31;;;;;;;1.77;1.40;;;;;;;;;;10482878;28;20515;-77
2024/03/23 08:21:34;;;;;;;3.20;1.40;;;;;;;;;;10472952;28;20199;-77
2024/03/23 08:26:37;;;;;;;4.15;2.08;;;;;;;;;;10478229;28;20055;-76
2024/03/23 08:31:40;;;;;;;5.45;1.45;;;;;;;;;;10485008;28;20051;-74
2024/03/23 08:36:42;;;;;;;4.70;1.05;;;;;;;;;;10483567;28;20055;-75
2024/03/23 08:42:09;;;;;;;1.10;0.90;;;;;;;;;;10487590;28;20052;-83
2024/03/23 08:47:19;;;;;;;2.05;1.23;;;;;;;;;;10478574;28;20052;-75
2024/03/23 08:52:23;;;;;;;4.47;1.58;;;;;;;;;;10463086;28;20036;-76
2024/03/23 08:57:25;;;;;;;1.80;1.05;;;;;;;;;;10479764;28;20043;-75
2024/03/23 09:02:28;;;;;;;2.40;1.20;;;;;;;;;;10485294;28;20697;-75
2024/03/23 09:07:32;;;;;;;1.70;1.20;;;;;;;;;;10484044;28;20334;-75
2024/03/23 09:12:34;;;;;;;0.70;0.68;;;;;;;;;;10481514;28;20457;-74
2024/03/23 09:17:37;;;;;;;2.28;1.50;;;;;;;;;;10480613;28;20449;-76
2024/03/23 09:22:40;;;;;;;3.07;1.40;;;;;;;;;;10489070;28;20544;-76
2024/03/23 09:27:42;;;;;;;2.67;1.45;;;;;;;;;;10484261;28;20329;-75
2024/03/23 09:32:46;;;;;;;5.47;1.80;;;;;;;;;;10477564;28;20029;-76
2024/03/23 09:37:48;;;;;;;3.38;1.38;;;;;;;;;;10479114;28;20032;-75
2024/03/23 09:42:50;;;;;;;2.45;1.52;;;;;;;;;;10483838;28;20036;-76
2024/03/23 09:47:54;;;;;;;2.17;1.23;;;;;;;;;;10485335;28;20055;-77
2024/03/23 09:52:56;;;;;;;1.75;1.05;;;;;;;;;;10471656;28;20048;-76
2024/03/23 09:57:59;;;;;;;1.45;0.80;;;;;;;;;;10481645;28;20809;-75
2024/03/23 10:03:02;;;;;;;1.13;0.77;;;;;;;;;;10494287;28;20846;-76
2024/03/23 10:08:18;;;;;;;1.02;0.80;;;;;;;;;;10485490;28;20409;-75
2024/03/23 10:13:26;;;;;;;0.68;0.63;;;;;;;;;;10497720;28;20441;-76
2024/03/23 10:18:32;;;;;;;0.50;0.40;;;;;;;;;;10463217;28;20041;-75
2024/03/23 10:23:33;;;;;;;0.88;0.68;;;;;;;;;;10482283;28;20365;-76
2024/03/23 10:28:37;;;;;;;0.47;0.47;;;;;;;;;;10470537;28;20146;-76
2024/03/23 10:33:45;;;;;;;2.30;0.90;;;;;;;;;;10475096;28;20048;-75
2024/03/23 10:38:47;;;;;;;1.05;0.60;;;;;;;;;;10482691;28;20427;-75
2024/03/23 10:43:50;;;;;;;1.92;0.60;;;;;;;;;;10479596;28;20546;-75
2024/03/23 10:48:53;;;;;;;1.38;0.65;;;;;;;;;;10498772;28;20055;-75
2024/03/23 10:53:56;;;;;;;0.73;0.60;;;;;;;;;;10483721;28;20044;-75
2024/03/23 10:58:59;;;;;;;0.40;0.40;;;;;;;;;;10481410;28;20069;-76
2024/03/23 11:04:02;;;;;;;0.88;0.40;;;;;;;;;;10465499;28;20492;-76
2024/03/23 11:09:27;;;;;;;1.65;0.52;;;;;;;;;;10479992;28;20041;-75
2024/03/23 11:14:33;;;;;;;0.30;0.10;;;;;;;;;;10479809;28;20155;-75
2024/03/23 11:19:38;;;;;;;1.05;0.50;;;;;;;;;;10460991;28;20071;-75
2024/03/23 11:24:41;;;;;;;1.02;0.40;;;;;;;;;;10481225;28;20234;-76
2024/03/23 11:29:43;;;;;;;1.27;0.60;;;;;;;;;;10489734;28;20501;-74
2024/03/23 11:34:48;;;;;;;3.58;0.70;;;;;;;;;;10496460;28;20040;-76
2024/03/23 11:39:50;;;;;;;0.85;0.70;;;;;;;;;;10476891;28;20040;-74
2024/03/23 11:44:52;;;;;;;1.00;0.50;;;;;;;;;;10487777;28;20052;-75
2024/03/23 11:49:55;;;;;;;1.00;0.70;;;;;;;;;;10483819;28;20036;-74
2024/03/23 11:55:07;;;;;;;1.08;0.70;;;;;;;;;;10476121;28;20081;-77
2024/03/23 12:00:22;;;;;;;0.80;0.80;;;;;;;;;;10474770;28;20160;-74
2024/03/23 12:05:29;;;;;;;1.90;0.90;;;;;;;;;;10491170;28;20101;-75
2024/03/23 12:10:33;;;;;;;1.90;0.80;;;;;;;;;;10482403;28;20029;-75
2024/03/23 12:15:36;;;;;;;1.35;0.80;;;;;;;;;;10479797;28;20044;-75
2024/03/23 12:20:41;;;;;;;1.27;0.73;;;;;;;;;;10491674;28;20073;-75
2024/03/23 12:25:44;;;;;;;1.27;0.82;;;;;;;;;;10481875;28;20513;-75
2024/03/23 12:30:47;;;;;;;1.00;0.90;;;;;;;;;;10489781;28;20040;-76
2024/03/23 12:35:53;;;;;;;2.22;1.20;;;;;;;;;;10499741;28;20123;-76
2024/03/23 12:40:55;;;;;;;3.85;1.27;;;;;;;;;;10471172;28;20094;-76
2024/03/23 12:45:58;;;;;;;2.30;1.05;;;;;;;;;;10487033;28;20048;-74
2024/03/23 12:51:01;;;;;;;3.83;1.15;;;;;;;;;;10480695;28;20090;-75
2024/03/23 12:56:04;;;;;;;1.42;0.93;;;;;;;;;;10483753;28;20131;-75
2024/03/23 13:01:07;;;;;;;2.25;1.20;;;;;;;;;;10487092;28;20044;-74
2024/03/23 13:06:10;;;;;;;2.92;1.50;;;;;;;;;;10482434;28;20044;-76
2024/03/23 13:11:13;;;;;;;1.77;1.25;;;;;;;;;;10477917;28;20041;-77
2024/03/23 13:16:16;;;;;;;5.38;1.60;;;;;;;;;;10490263;28;20592;-78
2024/03/23 13:21:20;;;;;;;2.78;1.25;;;;;;;;;;10482903;28;20051;-76
2024/03/23 13:26:22;;;;;;;1.90;1.15;;;;;;;;;;10481441;28;20596;-74
2024/03/23 13:31:25;;;;;;;5.45;1.40;;;;;;;;;;10488192;28;20040;-76
2024/03/23 13:36:28;;;;;;;2.42;1.08;;;;;;;;;;10481406;28;20051;-76
2024/03/23 13:41:30;;;;;;;1.73;0.98;;;;;;;;;;10481568;28;20039;-75
2024/03/23 13:46:32;;;;;;;6.03;1.60;;;;;;;;;;10500742;28;20072;-76
2024/03/23 13:51:36;;;;;;;4.90;1.48;;;;;;;;;;10478853;28;20047;-76
2024/03/23 13:56:38;;;;;;;4.45;1.70;;;;;;;;;;10484751;28;20127;-77
2024/03/23 14:01:40;;;;;;;5.22;1.75;;;;;;;;;;10484039;28;20044;-76
2024/03/23 14:06:47;;;;;;;4.30;1.70;;;;;;;;;;10481324;28;20052;-76
2024/03/23 14:11:50;;;;;;;5.05;2.10;;;;;;;;;;10485696;28;20472;-76
2024/03/23 14:16:53;;;;;;;3.47;1.35;;;;;;;;;;10475142;28;20040;-75
2024/03/23 14:21:56;;;;;;;4.07;1.23;;;;;;;;;;10476226;28;20063;-75
2024/03/23 14:26:58;;;;;;;4.25;1.83;;;;;;;;;;10475955;28;20051;-75
2024/03/23 14:32:03;;;;;;;3.97;1.58;;;;;;;;;;10474806;28;20040;-75
2024/03/23 14:37:06;;;;;;;3.33;1.48;;;;;;;;;;10481559;28;20044;-75
2024/03/23 14:42:09;;;;;;;2.30;1.00;;;;;;;;;;10494764;28;20055;-75
2024/03/23 14:47:12;;;;;;;4.78;1.10;;;;;;;;;;10470877;28;20036;-75
2024/03/23 14:52:15;;;;;;;5.97;0.95;;;;;;;;;;10476200;28;20162;-73
2024/03/23 14:57:19;;;;;;;2.73;1.50;;;;;;;;;;10477475;28;20044;-76
2024/03/23 15:02:20;;;;;;;6.72;2.20;;;;;;;;;;10475848;28;20063;-75
2024/03/23 15:07:24;;;;;;;4.22;1.27;;;;;;;;;;10475680;28;20600;-74
2024/03/23 15:12:27;;;;;;;3.70;1.13;;;;;;;;;;10460705;28;20389;-75
2024/03/23 15:17:34;;;;;;;1.15;0.60;;;;;;;;;;10477971;28;20044;-75
2024/03/23 15:22:38;;;;;;;1.90;1.05;;;;;;;;;;10481529;28;20448;-75
2024/03/23 15:27:39;;;;;;;1.15;0.68;;;;;;;;;;10479217;28;20046;-74
2024/03/23 15:32:41;;;;;;;3.40;1.35;;;;;;;;;;10479479;28;20055;-75
2024/03/23 15:37:45;;;;;;;4.13;0.77;;;;;;;;;;10495469;28;20092;-75
2024/03/23 15:42:47;;;;;;;1.50;0.60;;;;;;;;;;10479928;28;20082;-75
2024/03/23 15:47:49;;;;;;;3.83;0.65;;;;;;;;;;10485411;28;20060;-75
2024/03/23 15:52:55;;;;;;;0.75;0.52;;;;;;;;;;10476459;28;20098;-76
2024/03/23 15:57:57;;;;;;;4.22;1.38;;;;;;;;;;10477957;28;20071;-75
2024/03/23 16:02:59;;;;;;;4.63;1.55;;;;;;;;;;10476385;28;20044;-75
2024/03/23 16:08:04;;;;;;;0.97;0.90;;;;;;;;;;10481606;28;20048;-76
2024/03/23 16:13:06;;;;;;;3.38;1.52;;;;;;;;;;10476205;28;20523;-76
2024/03/23 16:18:09;;;;;;;2.90;1.15;;;;;;;;;;10474998;28;20044;-76
2024/03/23 16:23:16;;;;;;;3.88;1.50;;;;;;;;;;10476039;28;20052;-75
2024/03/23 16:28:19;;;;;;;4.85;1.42;;;;;;;;;;10491916;28;20036;-74
2024/03/23 16:33:21;;;;;;;2.85;1.10;;;;;;;;;;10476118;28;20055;-75
2024/03/23 16:38:24;;;;;;;4.13;1.27;;;;;;;;;;10472147;28;20353;-74
2024/03/23 16:43:27;;;;;;;6.97;1.45;;;;;;;;;;10476679;28;20511;-76
2024/03/23 16:48:30;;;;;;;4.13;1.40;;;;;;;;;;10460145;28;20043;-74
2024/03/23 16:53:34;;;;;;;3.55;1.20;;;;;;;;;;10480161;28;20064;-75
2024/03/23 16:58:36;;;;;;;2.10;1.05;;;;;;;;;;10485808;28;20604;-74
2024/03/23 17:03:38;;;;;;;3.03;1.23;;;;;;;;;;10480924;28;20627;-76
2024/03/23 17:08:42;;;;;;;3.45;1.50;;;;;;;;;;10483955;28;20106;-75
2024/03/23 17:13:44;;;;;;;;;;;;;;;;;;10481730;28;20504;-75
2024/03/23 17:18:46;;;;;;;1.98;1.30;;;;;;;;;;10479742;28;19932;-74
2024/03/23 17:23:50;;;;;;;6.40;1.48;;;;;;;;;;10494622;28;20155;-74
2024/03/23 17:28:52;;;;;;;3.20;1.60;;;;;;;;;;10501400;28;20052;-75
2024/03/23 17:33:55;;;;;;;4.80;1.60;;;;;;;;;;10470469;28;20193;-74
2024/03/23 17:38:59;;;;;;;2.40;1.15;;;;;;;;;;10480301;28;20055;-74
2024/03/23 17:44:02;;;;;;;1.85;0.47;;;;;;;;;;10488406;28;20389;-74
2024/03/23 17:49:05;;;;;;;2.95;0.80;;;;;;;;;;10483350;28;20048;-75
2024/03/23 17:54:08;;;;;;;0.52;0.35;;;;;;;;;;10482209;28;20036;-74
2024/03/23 17:59:12;;;;;;;1.70;0.55;;;;;;;;;;10490775;28;20036;-74
2024/03/23 18:04:14;;;;;;;2.13;1.20;;;;;;;;;;10496878;28;20055;-74
2024/03/23 18:09:18;;;;;;;2.65;0.80;;;;;;;;;;10475547;28;20032;-75
2024/03/23 18:14:22;;;;;;;2.05;1.02;;;;;;;;;;10480467;28;20040;-77
2024/03/23 18:19:28;;;;;;;2.30;0.90;;;;;;;;;;10476372;28;20032;-75
2024/03/23 18:24:34;;;;;;;2.25;0.47;;;;;;;;;;10468096;28;20071;-76
2024/03/23 18:29:36;;;;;;;1.63;0.80;;;;;;;;;;10479503;28;20044;-75
2024/03/23 18:34:39;;;;;;;0.50;0.50;;;;;;;;;;10477050;28;20044;-74
2024/03/23 18:39:48;;;;;;;2.05;0.65;;;;;;;;;;10494022;28;20565;-75
2024/03/23 18:44:50;;;;;;;1.75;0.70;;;;;;;;;;10482328;28;20044;-75
2024/03/23 18:49:52;;;;;;;0.82;0.63;;;;;;;;;;10482862;28;20051;-75
2024/03/23 18:54:56;;;;;;;3.92;0.60;;;;;;;;;;10495371;28;20136;-75
2024/03/23 18:59:59;;;;;;;0.80;0.68;;;;;;;;;;10477643;28;20040;-77
2024/03/23 19:05:04;;;;;;;0.20;0.20;;;;;;;;;;10475473;28;20514;-75
2024/03/23 19:10:15;;;;;;;1.70;0.82;;;;;;;;;;10483323;28;20036;-75
2024/03/23 19:15:17;;;;;;;1.10;0.77;;;;;;;;;;10465015;28;20154;-75
2024/03/23 19:20:22;;;;;;;1.10;0.45;;;;;;;;;;10464585;28;20187;-75
2024/03/23 19:25:29;;;;;;;1.38;0.57;;;;;;;;;;10482308;28;20044;-77
2024/03/23 19:30:32;;;;;;;3.35;0.50;;;;;;;;;;10480611;28;20535;-75
2024/03/23 19:35:36;;;;;;;1.67;0.80;;;;;;;;;;10478223;28;20060;-75
2024/03/23 19:40:41;;;;;;;1.20;0.68;;;;;;;;;;10475111;28;20047;-74
2024/03/23 19:45:43;;;;;;;0.60;0.60;;;;;;;;;;10494410;28;20040;-75
2024/03/23 19:50:46;;;;;;;1.20;0.80;;;;;;;;;;10488134;28;20028;-73
2024/03/23 19:56:03;;;;;;;3.05;1.23;;;;;;;;;;10486134;28;21399;-76
2024/03/23 20:01:06;;;;;;;3.92;1.25;;;;;;;;;;10467612;28;20032;-76
2024/03/23 20:06:11;;;;;;;3.07;1.17;;;;;;;;;;10495351;28;20101;-76
2024/03/23 20:11:18;;;;;;;1.85;1.00;;;;;;;;;;10479109;28;20036;-77
2024/03/23 20:16:23;;;;;;;4.68;1.55;;;;;;;;;;10461289;28;20075;-76
2024/03/23 20:21:25;;;;;;;1.70;1.25;;;;;;;;;;10465844;28;20044;-73
2024/03/23 20:26:31;;;;;;;1.33;1.05;;;;;;;;;;10503284;28;20150;-73
2024/03/23 20:31:36;;;;;;;3.75;1.38;;;;;;;;;;10496544;28;20202;-75
2024/03/23 20:36:38;;;;;;;2.13;0.93;;;;;;;;;;10479753;28;20037;-75
2024/03/23 20:41:42;;;;;;;5.88;1.30;;;;;;;;;;10487260;28;20048;-75
2024/03/23 20:46:43;;;;;;;0.40;0.40;;;;;;;;;;10484378;28;20050;-74
2024/03/23 20:51:47;;;;;;;4.05;1.05;;;;;;;;;;10486964;28;20112;-74
2024/03/23 20:56:50;;;;;;;2.15;0.80;;;;;;;;;;10471414;28;20048;-75
2024/03/23 21:01:53;;;;;;;2.05;0.82;;;;;;;;;;10487306;28;20051;-76
2024/03/23 21:06:55;;;;;;;1.55;0.70;;;;;;;;;;10480292;28;20047;-76
2024/03/23 21:11:59;;;;;;;3.05;1.27;;;;;;;;;;10480797;28;20512;-76
2024/03/23 21:17:02;;;;;;;1.02;0.30;;;;;;;;;;10473385;28;20515;-76
2024/03/23 21:22:05;;;;;;;1.95;0.77;;;;;;;;;;10484756;28;20046;-76
2024/03/23 21:27:09;;;;;;;2.05;0.77;;;;;;;;;;10487035;28;20085;-77
2024/03/23 21:32:11;;;;;;;1.60;0.63;;;;;;;;;;10480984;28;20392;-76
2024/03/23 21:37:12;;;;;;;1.65;1.10;;;;;;;;;;10480056;28;20306;-74
2024/03/23 21:42:16;;;;;;;0.60;0.60;;;;;;;;;;10486173;28;20040;-76
2024/03/23 21:47:18;;;;;;;1.25;0.90;;;;;;;;;;10478053;28;20040;-76
2024/03/23 21:52:21;;;;;;;0.93;0.73;;;;;;;;;;10486911;28;20139;-76
2024/03/23 21:57:25;;;;;;;0.60;0.40;;;;;;;;;;10466944;28;20040;-76
2024/03/23 22:02:27;;;;;;;0.80;0.70;;;;;;;;;;10486708;28;20047;-76
2024/03/23 22:07:32;;;;;;;3.08;1.10;;;;;;;;;;10481351;28;20066;-75
2024/03/23 22:12:35;;;;;;;0.52;0.50;;;;;;;;;;10469418;28;20035;-74
2024/03/23 22:17:38;;;;;;;1.10;0.65;;;;;;;;;;10478049;28;20040;-76
2024/03/23 22:22:40;;;;;;;0.77;0.60;;;;;;;;;;10478819;28;20407;-75
2024/03/23 22:27:44;;;;;;;1.38;0.60;;;;;;;;;;10482981;28;20048;-75
2024/03/23 22:32:46;;;;;;;1.40;0.50;;;;;;;;;;10460083;28;20074;-76
2024/03/23 22:37:48;;;;;;;1.52;0.90;;;;;;;;;;10477551;28;20040;-75
2024/03/23 22:42:51;;;;;;;0.88;0.50;;;;;;;;;;10469524;28;20453;-75
2024/03/23 22:47:53;;;;;;;1.50;0.55;;;;;;;;;;10478018;28;20051;-75
2024/03/23 22:52:57;;;;;;;0.30;0.20;;;;;;;;;;10475395;28;20116;-76
2024/03/23 22:58:01;;;;;;;0.75;0.25;;;;;;;;;;10474321;28;20036;-75
2024/03/23 23:03:03;;;;;;;0.65;0.28;;;;;;;;;;10478467;28;20047;-75
2024/03/23 23:08:05;;;;;;;0.90;0.20;;;;;;;;;;10459494;28;20048;-73
2024/03/23 23:13:08;;;;;;;0.03;0.03;;;;;;;;;;10483606;28;20056;-76
2024/03/23 23:18:13;;;;;;;2.90;1.33;;;;;;;;;;10483133;28;20058;-75
2024/03/23 23:23:17;;;;;;;0.60;0.50;;;;;;;;;;10499523;28;20075;-75
2024/03/23 23:28:20;;;;;;;0.20;0.20;;;;;;;;;;10477174;28;20098;-75
2024/03/23 23:33:22;;;;;;;0.75;0.38;;;;;;;;;;10482748;28;20127;-75
2024/03/23 23:38:25;;;;;;;1.25;0.40;;;;;;;;;;10474232;28;20036;-74
2024/03/23 23:43:28;;;;;;;0.50;0.20;;;;;;;;;;10482480;28;20558;-76
2024/03/23 23:48:30;;;;;;;0.03;0.03;;;;;;;;;;10475518;28;20044;-74
2024/03/23 23:53:34;;;;;;;0.55;0.40;;;;;;;;;;10479525;28;20501;-75
2024/03/23 23:58:37;;;;;;;1.75;0.40;;;;;;;;;;10485614;28;20513;-75
